Time;durP1;ratioP1;P1;durP2;ratioP2;P2;SDS_P1;SDS_P2;PMS_P1;PMS_P2;Temp;Humidity;BMP_temperature;BMP_pressure;BME280_temperature;BME280_humidity;BME280_pressure;Samples;Min_cycle;Max_cycle;Signal;HPM_P1;HPM_P2
2021/09/27 00:00:19;;;;;;;38.77;24.57;;;;;;;;;;4913793;29;20478;-85
2021/09/27 00:02:49;;;;;;;48.20;23.70;;;;;;;;;;4920077;29;20437;-86
2021/09/27 00:05:18;;;;;;;37.77;23.60;;;;;;;;;;4915407;29;20895;-85
2021/09/27 00:07:47;;;;;;;40.50;22.70;;;;;;;;;;4916992;29;20461;-85
2021/09/27 00:10:17;;;;;;;34.70;21.13;;;;;;;;;;4918807;29;20489;-86
2021/09/27 00:12:46;;;;;;;38.70;23.70;;;;;;;;;;4919423;29;20469;-86
2021/09/27 00:15:16;;;;;;;34.43;21.57;;;;;;;;;;4913086;29;20470;-85
2021/09/27 00:17:44;;;;;;;36.33;21.73;;;;;;;;;;4920728;29;21229;-85
2021/09/27 00:20:15;;;;;;;41.20;21.50;;;;;;;;;;4918444;29;20498;-85
2021/09/27 00:22:43;;;;;;;37.53;20.60;;;;;;;;;;4924149;29;20448;-85
2021/09/27 00:25:12;;;;;;;41.80;21.60;;;;;;;;;;4911386;29;20540;-86
2021/09/27 00:27:44;;;;;;;38.73;22.50;;;;;;;;;;4915786;29;20465;-85
2021/09/27 00:30:13;;;;;;;41.70;22.90;;;;;;;;;;4910251;29;20478;-85
2021/09/27 00:32:42;;;;;;;36.60;20.40;;;;;;;;;;4912440;29;20552;-85
2021/09/27 00:35:12;;;;;;;35.97;21.43;;;;;;;;;;4916852;29;20460;-85
2021/09/27 00:37:44;;;;;;;39.10;21.20;;;;;;;;;;4909286;29;20460;-85
2021/09/27 00:40:14;;;;;;;32.00;19.63;;;;;;;;;;4918485;29;20496;-85
2021/09/27 00:42:42;;;;;;;36.50;21.47;;;;;;;;;;4916168;29;20508;-85
2021/09/27 00:45:11;;;;;;;38.67;23.13;;;;;;;;;;4914953;29;20467;-85
2021/09/27 00:47:39;;;;;;;44.67;23.00;;;;;;;;;;4907177;29;20453;-85
2021/09/27 00:50:09;;;;;;;35.40;20.80;;;;;;;;;;4912495;29;20481;-85
2021/09/27 00:52:38;;;;;;;45.13;22.87;;;;;;;;;;4917059;29;20471;-85
2021/09/27 00:55:10;;;;;;;39.20;22.23;;;;;;;;;;4914340;29;20481;-85
2021/09/27 00:57:38;;;;;;;41.93;22.27;;;;;;;;;;4910776;29;20472;-85
2021/09/27 01:00:10;;;;;;;38.83;21.97;;;;;;;;;;4910471;29;20486;-85
2021/09/27 01:02:38;;;;;;;39.23;22.20;;;;;;;;;;4907498;29;21024;-85
2021/09/27 01:05:08;;;;;;;46.10;23.70;;;;;;;;;;4891229;29;20478;-86
2021/09/27 01:07:42;;;;;;;38.50;22.33;;;;;;;;;;4903930;29;20480;-85
2021/09/27 01:10:19;;;;;;;35.00;21.60;;;;;;;;;;4898989;29;20497;-85
2021/09/27 01:13:02;;;;;;;38.90;21.60;;;;;;;;;;4903738;29;20889;-85
2021/09/27 01:15:35;;;;;;;36.30;21.03;;;;;;;;;;4903692;29;20472;-85
2021/09/27 01:18:08;;;;;;;37.63;20.73;;;;;;;;;;4902496;29;22619;-85
2021/09/27 01:20:55;;;;;;;38.67;21.03;;;;;;;;;;4913650;29;20481;-85
2021/09/27 01:23:41;;;;;;;37.37;20.43;;;;;;;;;;4912365;29;20453;-85
2021/09/27 01:26:18;;;;;;;39.90;22.57;;;;;;;;;;4907341;29;20842;-85
2021/09/27 01:29:02;;;;;;;35.23;20.30;;;;;;;;;;4908688;29;20476;-85
2021/09/27 01:31:40;;;;;;;39.10;22.80;;;;;;;;;;4904494;29;20499;-85
2021/09/27 01:34:14;;;;;;;39.63;21.63;;;;;;;;;;4895246;29;20918;-85
2021/09/27 01:36:49;;;;;;;42.40;21.63;;;;;;;;;;4908079;29;20488;-85
2021/09/27 01:39:20;;;;;;;39.37;21.97;;;;;;;;;;4901687;29;20856;-85
2021/09/27 01:41:52;;;;;;;38.33;21.97;;;;;;;;;;4910133;29;20975;-85
2021/09/27 01:44:26;;;;;;;34.70;21.90;;;;;;;;;;4900760;29;20475;-85
2021/09/27 01:46:56;;;;;;;44.17;22.40;;;;;;;;;;4894011;29;20483;-85
2021/09/27 01:49:29;;;;;;;36.43;21.07;;;;;;;;;;4905692;29;20492;-87
2021/09/27 01:51:59;;;;;;;44.10;21.73;;;;;;;;;;4909210;29;20504;-85
2021/09/27 01:54:32;;;;;;;49.43;23.00;;;;;;;;;;4909392;29;20487;-85
2021/09/27 01:57:03;;;;;;;42.40;23.17;;;;;;;;;;4892809;29;20556;-85
2021/09/27 01:59:35;;;;;;;44.23;24.30;;;;;;;;;;4875199;29;20479;-85
2021/09/27 02:02:07;;;;;;;45.20;24.00;;;;;;;;;;4914112;29;20520;-85
2021/09/27 02:04:39;;;;;;;41.80;23.30;;;;;;;;;;4917940;29;20462;-85
2021/09/27 02:07:10;;;;;;;39.67;22.50;;;;;;;;;;4917536;29;20468;-86
2021/09/27 02:09:42;;;;;;;45.70;26.50;;;;;;;;;;4912801;29;20488;-85
2021/09/27 02:12:13;;;;;;;44.53;21.63;;;;;;;;;;4916338;29;20470;-85
2021/09/27 02:14:43;;;;;;;45.27;22.00;;;;;;;;;;4913683;29;20560;-85
2021/09/27 02:17:13;;;;;;;43.93;24.33;;;;;;;;;;4918768;29;20450;-85
2021/09/27 02:19:47;;;;;;;40.17;22.93;;;;;;;;;;4911538;29;20495;-85
2021/09/27 02:22:17;;;;;;;39.30;23.40;;;;;;;;;;4918281;29;20453;-85
2021/09/27 02:24:49;;;;;;;43.67;23.40;;;;;;;;;;4912883;29;20461;-85
2021/09/27 02:27:17;;;;;;;47.03;24.57;;;;;;;;;;4883290;29;20483;-85
2021/09/27 02:29:48;;;;;;;42.90;22.17;;;;;;;;;;4902234;29;21015;-85
2021/09/27 02:32:21;;;;;;;48.30;26.07;;;;;;;;;;4895468;29;20864;-85
2021/09/27 02:34:54;;;;;;;42.57;23.30;;;;;;;;;;4906795;29;20830;-84
2021/09/27 02:37:25;;;;;;;43.37;23.87;;;;;;;;;;4899926;29;20484;-85
2021/09/27 02:39:55;;;;;;;46.80;24.77;;;;;;;;;;4908743;29;20480;-85
2021/09/27 02:42:27;;;;;;;43.17;22.77;;;;;;;;;;4903632;29;20484;-85
2021/09/27 02:44:55;;;;;;;46.67;23.23;;;;;;;;;;4896814;29;20882;-85
2021/09/27 02:47:27;;;;;;;46.30;22.90;;;;;;;;;;4890773;29;21107;-85
2021/09/27 02:49:58;;;;;;;44.90;23.00;;;;;;;;;;4907746;29;21478;-85
2021/09/27 02:52:27;;;;;;;42.53;23.57;;;;;;;;;;4908605;29;20874;-85
2021/09/27 02:54:58;;;;;;;41.70;22.73;;;;;;;;;;4886044;29;20481;-85
2021/09/27 02:57:41;;;;;;;42.80;23.63;;;;;;;;;;4900375;29;20491;-85
2021/09/27 03:00:10;;;;;;;44.80;23.13;;;;;;;;;;4887760;29;20500;-85
2021/09/27 03:02:45;;;;;;;41.73;23.33;;;;;;;;;;4898790;29;20491;-85
2021/09/27 03:05:20;;;;;;;39.83;21.80;;;;;;;;;;4909032;29;20476;-85
2021/09/27 03:07:56;;;;;;;36.40;20.67;;;;;;;;;;4900350;29;22271;-85
2021/09/27 03:10:29;;;;;;;43.50;24.80;;;;;;;;;;4909880;29;20487;-85
2021/09/27 03:13:05;;;;;;;46.70;24.60;;;;;;;;;;4908623;29;20487;-85
2021/09/27 03:15:53;;;;;;;52.07;25.57;;;;;;;;;;4904390;29;20472;-85
2021/09/27 03:18:28;;;;;;;43.50;23.30;;;;;;;;;;4900634;29;20488;-85
2021/09/27 03:21:01;;;;;;;36.53;20.80;;;;;;;;;;4909086;29;20496;-85
2021/09/27 03:23:35;;;;;;;47.10;24.53;;;;;;;;;;4912832;29;20490;-85
2021/09/27 03:26:07;;;;;;;43.70;22.90;;;;;;;;;;4887778;29;20483;-85
2021/09/27 03:28:42;;;;;;;52.97;24.97;;;;;;;;;;4885634;29;20485;-85
2021/09/27 03:31:14;;;;;;;42.13;23.30;;;;;;;;;;4905509;29;20924;-85
2021/09/27 03:33:49;;;;;;;45.03;24.40;;;;;;;;;;4901570;29;20523;-85
2021/09/27 03:36:32;;;;;;;44.90;22.83;;;;;;;;;;4906757;29;20483;-85
2021/09/27 03:39:10;;;;;;;45.63;23.37;;;;;;;;;;4887004;29;21296;-85
2021/09/27 03:41:42;;;;;;;48.57;22.30;;;;;;;;;;4901181;29;20500;-85
2021/09/27 03:44:12;;;;;;;46.47;23.23;;;;;;;;;;4896893;29;20504;-85
2021/09/27 03:46:47;;;;;;;37.10;21.60;;;;;;;;;;4903295;29;20484;-85
2021/09/27 03:49:21;;;;;;;48.40;23.50;;;;;;;;;;4901957;29;20845;-85
2021/09/27 03:51:51;;;;;;;49.43;24.70;;;;;;;;;;4908731;29;20562;-85
2021/09/27 03:54:26;;;;;;;40.30;22.40;;;;;;;;;;4910168;29;20465;-85
2021/09/27 03:56:57;;;;;;;43.23;24.13;;;;;;;;;;4896815;29;20490;-84
2021/09/27 03:59:28;;;;;;;46.80;22.63;;;;;;;;;;4896551;29;20555;-85
2021/09/27 04:02:01;;;;;;;50.50;23.43;;;;;;;;;;4886574;29;20489;-85
2021/09/27 04:04:38;;;;;;;45.23;23.17;;;;;;;;;;4909873;29;20484;-85
2021/09/27 04:07:20;;;;;;;52.33;24.80;;;;;;;;;;4902235;29;20490;-85
2021/09/27 04:09:58;;;;;;;48.10;23.10;;;;;;;;;;4885096;29;20490;-85
2021/09/27 04:12:29;;;;;;;50.70;23.30;;;;;;;;;;4868718;29;20468;-85
2021/09/27 04:15:04;;;;;;;56.17;25.33;;;;;;;;;;4885086;29;20484;-85
2021/09/27 04:17:41;;;;;;;54.40;25.70;;;;;;;;;;4894870;29;20471;-85
2021/09/27 04:20:14;;;;;;;52.20;24.13;;;;;;;;;;4912291;29;20486;-85
2021/09/27 04:22:44;;;;;;;50.20;23.73;;;;;;;;;;4911144;29;20456;-85
2021/09/27 04:25:18;;;;;;;46.00;24.63;;;;;;;;;;4908539;29;21009;-85
2021/09/27 04:27:58;;;;;;;59.43;24.80;;;;;;;;;;4895469;29;20579;-85
2021/09/27 04:30:41;;;;;;;52.47;24.90;;;;;;;;;;4894443;29;20485;-85
2021/09/27 04:33:18;;;;;;;63.40;26.30;;;;;;;;;;4861890;29;21072;-85
2021/09/27 04:35:51;;;;;;;45.70;22.70;;;;;;;;;;4908838;29;20468;-85
2021/09/27 04:38:20;;;;;;;50.20;23.53;;;;;;;;;;4895760;29;20501;-85
2021/09/27 04:41:02;;;;;;;48.90;24.10;;;;;;;;;;4881873;29;20481;-85
2021/09/27 04:43:37;;;;;;;51.93;24.97;;;;;;;;;;4878632;29;20513;-85
2021/09/27 04:46:08;;;;;;;54.50;24.00;;;;;;;;;;4899230;29;20487;-85
2021/09/27 04:48:54;;;;;;;42.30;22.00;;;;;;;;;;4903840;29;20488;-85
2021/09/27 04:51:28;;;;;;;46.23;23.57;;;;;;;;;;4900173;29;20487;-85
2021/09/27 04:54:13;;;;;;;52.30;22.70;;;;;;;;;;4910250;29;20873;-85
2021/09/27 04:56:45;;;;;;;46.90;22.90;;;;;;;;;;4900867;29;20483;-85
2021/09/27 04:59:23;;;;;;;44.97;22.03;;;;;;;;;;4900278;29;20513;-85
2021/09/27 05:02:09;;;;;;;52.57;24.10;;;;;;;;;;4885528;29;20491;-85
2021/09/27 05:04:41;;;;;;;50.87;22.43;;;;;;;;;;4910816;29;20567;-85
2021/09/27 05:07:16;;;;;;;49.77;24.73;;;;;;;;;;4910558;29;20493;-85
2021/09/27 05:09:53;;;;;;;46.80;22.20;;;;;;;;;;4898908;29;20485;-85
2021/09/27 05:12:32;;;;;;;52.43;23.73;;;;;;;;;;4893991;29;20483;-84
2021/09/27 05:15:08;;;;;;;51.87;21.77;;;;;;;;;;4897636;29;20483;-85
2021/09/27 05:17:50;;;;;;;53.33;24.43;;;;;;;;;;4897327;29;21016;-84
2021/09/27 05:20:29;;;;;;;47.77;24.60;;;;;;;;;;4902046;29;20497;-84
2021/09/27 05:23:03;;;;;;;55.40;24.50;;;;;;;;;;4893561;29;20509;-85
2021/09/27 05:25:46;;;;;;;50.30;24.13;;;;;;;;;;4900592;29;20481;-84
2021/09/27 05:28:24;;;;;;;49.27;22.57;;;;;;;;;;4887297;29;20469;-86
2021/09/27 05:31:01;;;;;;;52.87;23.67;;;;;;;;;;4898851;29;20639;-84
2021/09/27 05:33:33;;;;;;;46.93;23.03;;;;;;;;;;4896857;29;20477;-84
2021/09/27 05:36:12;;;;;;;53.37;24.30;;;;;;;;;;4895723;29;20496;-84
2021/09/27 05:38:50;;;;;;;49.13;24.30;;;;;;;;;;4900243;29;20998;-84
2021/09/27 05:41:24;;;;;;;55.97;24.83;;;;;;;;;;4904254;29;21001;-84
2021/09/27 05:44:03;;;;;;;46.37;22.03;;;;;;;;;;4890651;29;20489;-84
2021/09/27 05:46:54;;;;;;;50.07;22.60;;;;;;;;;;4886252;29;20852;-84
2021/09/27 05:49:29;;;;;;;44.63;22.13;;;;;;;;;;4900976;29;20494;-85
2021/09/27 05:52:00;;;;;;;38.87;19.93;;;;;;;;;;4888597;29;20857;-84
2021/09/27 05:54:32;;;;;;;40.37;21.33;;;;;;;;;;4884802;29;20481;-86
2021/09/27 05:57:03;;;;;;;46.07;22.30;;;;;;;;;;4887551;29;20487;-86
2021/09/27 05:59:39;;;;;;;41.70;21.70;;;;;;;;;;4887821;29;20485;-86
2021/09/27 06:02:14;;;;;;;42.30;21.63;;;;;;;;;;4890029;29;20927;-86
2021/09/27 06:04:50;;;;;;;42.40;20.77;;;;;;;;;;4905341;29;20983;-87
2021/09/27 06:07:24;;;;;;;39.97;20.43;;;;;;;;;;4909471;29;20963;-86
2021/09/27 06:09:59;;;;;;;44.30;22.57;;;;;;;;;;4903574;29;20496;-86
2021/09/27 06:12:34;;;;;;;42.60;22.10;;;;;;;;;;4894199;29;20484;-87
2021/09/27 06:15:08;;;;;;;48.07;22.07;;;;;;;;;;4839665;29;20462;-86
2021/09/27 06:17:47;;;;;;;40.20;19.90;;;;;;;;;;4888909;29;20507;-86
2021/09/27 06:20:18;;;;;;;41.20;21.37;;;;;;;;;;4906708;29;20869;-87
2021/09/27 06:22:53;;;;;;;42.17;20.17;;;;;;;;;;4892048;29;20522;-86
2021/09/27 06:25:24;;;;;;;39.93;19.27;;;;;;;;;;4898671;29;20473;-86
2021/09/27 06:28:03;;;;;;;40.70;21.20;;;;;;;;;;4892159;29;20895;-86
2021/09/27 06:30:40;;;;;;;37.23;19.10;;;;;;;;;;4896964;29;20584;-86
2021/09/27 06:33:14;;;;;;;41.87;20.87;;;;;;;;;;4880411;29;20495;-86
2021/09/27 06:35:43;;;;;;;40.20;20.50;;;;;;;;;;4903006;29;20500;-86
2021/09/27 06:38:14;;;;;;;33.70;19.23;;;;;;;;;;4912091;29;20482;-87
2021/09/27 06:40:48;;;;;;;34.27;18.70;;;;;;;;;;4907923;29;20477;-87
2021/09/27 06:43:19;;;;;;;46.70;22.33;;;;;;;;;;4900251;29;20484;-87
2021/09/27 06:45:49;;;;;;;36.23;18.20;;;;;;;;;;4892500;29;20487;-86
2021/09/27 06:48:17;;;;;;;33.80;18.57;;;;;;;;;;4906166;29;20469;-85
2021/09/27 06:50:45;;;;;;;36.80;18.13;;;;;;;;;;4907329;29;20478;-85
2021/09/27 06:53:14;;;;;;;33.97;17.17;;;;;;;;;;4896798;29;20480;-84
2021/09/27 06:55:42;;;;;;;32.90;17.93;;;;;;;;;;4888730;29;20587;-84
2021/09/27 06:58:10;;;;;;;27.50;15.60;;;;;;;;;;4895397;29;20485;-85
2021/09/27 07:00:42;;;;;;;27.90;16.63;;;;;;;;;;4868131;29;20484;-84
2021/09/27 07:03:16;;;;;;;25.83;14.97;;;;;;;;;;4898038;29;20486;-84
2021/09/27 07:05:45;;;;;;;25.70;14.87;;;;;;;;;;4889933;29;20480;-84
2021/09/27 07:08:13;;;;;;;25.73;14.70;;;;;;;;;;4892900;29;21063;-85
2021/09/27 07:10:46;;;;;;;25.40;15.00;;;;;;;;;;4888132;29;20472;-84
2021/09/27 07:13:14;;;;;;;21.20;15.00;;;;;;;;;;4893100;29;20477;-85
2021/09/27 07:15:43;;;;;;;24.90;15.00;;;;;;;;;;4887275;29;20474;-84
2021/09/27 07:18:13;;;;;;;23.93;13.90;;;;;;;;;;4885304;29;20991;-84
2021/09/27 07:20:44;;;;;;;29.50;15.00;;;;;;;;;;4897495;29;21418;-84
2021/09/27 07:23:13;;;;;;;25.70;15.73;;;;;;;;;;4909114;29;20473;-85
2021/09/27 07:25:41;;;;;;;27.50;15.73;;;;;;;;;;4898707;29;20485;-85
2021/09/27 07:28:10;;;;;;;27.70;16.13;;;;;;;;;;4900077;29;20488;-85
2021/09/27 07:30:38;;;;;;;28.53;16.07;;;;;;;;;;4900678;29;20477;-85
2021/09/27 07:33:07;;;;;;;28.50;15.20;;;;;;;;;;4896158;29;20509;-84
2021/09/27 07:35:39;;;;;;;21.90;14.03;;;;;;;;;;4902984;29;20481;-85
2021/09/27 07:38:08;;;;;;;21.20;12.90;;;;;;;;;;4904849;29;20477;-84
2021/09/27 07:40:38;;;;;;;23.27;15.00;;;;;;;;;;4899888;29;20477;-84
2021/09/27 07:43:06;;;;;;;27.07;15.83;;;;;;;;;;4903241;29;20492;-85
2021/09/27 07:45:36;;;;;;;25.27;15.50;;;;;;;;;;4872996;29;20835;-85
2021/09/27 07:48:04;;;;;;;24.57;15.33;;;;;;;;;;4898099;29;20841;-84
2021/09/27 07:50:35;;;;;;;31.70;15.90;;;;;;;;;;4910982;29;20481;-85
2021/09/27 07:53:07;;;;;;;24.40;14.30;;;;;;;;;;4913099;29;20481;-85
2021/09/27 07:55:35;;;;;;;23.50;15.07;;;;;;;;;;4911719;29;20489;-84
2021/09/27 07:58:06;;;;;;;22.60;13.70;;;;;;;;;;4905396;29;20568;-84
2021/09/27 08:00:35;;;;;;;23.73;14.57;;;;;;;;;;4897977;29;20488;-85
2021/09/27 08:03:04;;;;;;;21.53;14.07;;;;;;;;;;4907852;29;20497;-84
2021/09/27 08:05:34;;;;;;;20.27;13.37;;;;;;;;;;4914759;29;20482;-84
2021/09/27 08:08:07;;;;;;;21.27;14.20;;;;;;;;;;4907428;29;23008;-84
2021/09/27 08:10:40;;;;;;;21.17;14.20;;;;;;;;;;4880094;29;20477;-85
2021/09/27 08:13:09;;;;;;;20.20;12.90;;;;;;;;;;4879598;29;20485;-84
2021/09/27 08:15:39;;;;;;;21.13;13.33;;;;;;;;;;4912161;29;20473;-84
2021/09/27 08:18:08;;;;;;;23.27;13.47;;;;;;;;;;4899280;29;20495;-85
2021/09/27 08:20:38;;;;;;;20.07;13.70;;;;;;;;;;4916676;29;20488;-85
2021/09/27 08:23:06;;;;;;;24.70;14.90;;;;;;;;;;4917159;29;20501;-85
2021/09/27 08:25:36;;;;;;;27.73;16.67;;;;;;;;;;4908732;29;20481;-85
2021/09/27 08:28:07;;;;;;;26.40;16.10;;;;;;;;;;4913715;29;20491;-85
2021/09/27 08:30:40;;;;;;;31.60;19.07;;;;;;;;;;4906043;29;20587;-85
2021/09/27 08:33:08;;;;;;;29.07;16.70;;;;;;;;;;4901633;29;21345;-85
2021/09/27 08:35:37;;;;;;;28.27;16.63;;;;;;;;;;4914651;29;20868;-85
2021/09/27 08:38:07;;;;;;;27.60;16.83;;;;;;;;;;4905817;29;20478;-85
2021/09/27 08:40:49;;;;;;;26.10;15.67;;;;;;;;;;4904471;29;20482;-85
2021/09/27 08:43:21;;;;;;;28.50;16.47;;;;;;;;;;4885480;29;20476;-84
2021/09/27 08:45:50;;;;;;;29.17;16.10;;;;;;;;;;4909205;29;20875;-84
2021/09/27 08:48:27;;;;;;;28.27;16.70;;;;;;;;;;4905098;29;20485;-84
2021/09/27 08:50:56;;;;;;;24.07;15.20;;;;;;;;;;4890123;29;20482;-85
2021/09/27 08:53:26;;;;;;;21.50;14.77;;;;;;;;;;4893253;29;21069;-85
2021/09/27 08:55:59;;;;;;;20.13;13.10;;;;;;;;;;4902990;29;20558;-85
2021/09/27 08:58:31;;;;;;;19.77;13.40;;;;;;;;;;4905488;29;20483;-85
2021/09/27 09:01:02;;;;;;;20.83;13.53;;;;;;;;;;4869974;29;20466;-85
2021/09/27 09:03:33;;;;;;;23.97;13.83;;;;;;;;;;4883944;29;20478;-84
2021/09/27 09:06:04;;;;;;;25.20;14.13;;;;;;;;;;4905792;29;20480;-84
2021/09/27 09:08:35;;;;;;;24.10;13.33;;;;;;;;;;4912481;29;20516;-85
2021/09/27 09:11:06;;;;;;;22.67;13.80;;;;;;;;;;4898278;29;21215;-84
2021/09/27 09:13:41;;;;;;;30.33;12.97;;;;;;;;;;4905672;29;20465;-85
2021/09/27 09:16:11;;;;;;;24.17;14.10;;;;;;;;;;4900597;29;20489;-84
2021/09/27 09:18:40;;;;;;;20.50;12.40;;;;;;;;;;4900395;29;20492;-84
2021/09/27 09:21:19;;;;;;;18.40;13.23;;;;;;;;;;4895653;29;20480;-85
2021/09/27 09:23:51;;;;;;;14.47;10.40;;;;;;;;;;4913306;29;20467;-84
2021/09/27 09:26:23;;;;;;;17.70;12.83;;;;;;;;;;4899807;29;20464;-84
2021/09/27 09:28:54;;;;;;;21.53;13.40;;;;;;;;;;4891157;29;21001;-85
2021/09/27 09:31:24;;;;;;;21.00;12.73;;;;;;;;;;4886717;29;20537;-84
2021/09/27 09:33:55;;;;;;;20.00;13.20;;;;;;;;;;4898392;29;20631;-84
2021/09/27 09:36:25;;;;;;;20.07;12.90;;;;;;;;;;4908075;29;20485;-84
2021/09/27 09:38:53;;;;;;;20.77;11.97;;;;;;;;;;4907628;29;20862;-85
2021/09/27 09:41:42;;;;;;;17.90;11.67;;;;;;;;;;4902966;29;20521;-84
2021/09/27 09:44:22;;;;;;;20.70;11.23;;;;;;;;;;4879304;29;20475;-84
2021/09/27 09:46:59;;;;;;;15.50;11.00;;;;;;;;;;4894911;29;20662;-85
2021/09/27 09:49:30;;;;;;;19.57;12.40;;;;;;;;;;4903379;29;20485;-84
2021/09/27 09:52:02;;;;;;;17.00;12.30;;;;;;;;;;4901864;29;20476;-83
2021/09/27 09:54:38;;;;;;;17.00;11.17;;;;;;;;;;4870198;29;20484;-84
2021/09/27 09:57:10;;;;;;;11.67;8.60;;;;;;;;;;4874191;29;20484;-84
2021/09/27 09:59:44;;;;;;;12.73;8.70;;;;;;;;;;4890423;29;20581;-84
2021/09/27 10:02:19;;;;;;;14.57;9.97;;;;;;;;;;4865858;29;20539;-84
2021/09/27 10:04:49;;;;;;;15.33;9.83;;;;;;;;;;4901904;29;20962;-83
2021/09/27 10:07:19;;;;;;;17.73;10.50;;;;;;;;;;4912324;29;20482;-84
2021/09/27 10:09:58;;;;;;;12.83;9.20;;;;;;;;;;4910904;29;20466;-85
2021/09/27 10:12:38;;;;;;;10.03;8.40;;;;;;;;;;4909081;29;20477;-84
2021/09/27 10:15:08;;;;;;;11.60;8.87;;;;;;;;;;4886272;29;20489;-84
2021/09/27 10:17:40;;;;;;;12.80;9.97;;;;;;;;;;4855372;29;20516;-84
2021/09/27 10:20:11;;;;;;;10.77;8.90;;;;;;;;;;4909270;29;20492;-85
2021/09/27 10:22:40;;;;;;;11.40;8.53;;;;;;;;;;4900028;29;20482;-84
2021/09/27 10:25:23;;;;;;;10.43;8.60;;;;;;;;;;4891769;29;20484;-83
2021/09/27 10:27:54;;;;;;;9.87;7.77;;;;;;;;;;4888363;29;20473;-84
2021/09/27 10:30:26;;;;;;;10.30;7.23;;;;;;;;;;4882963;29;21023;-84
2021/09/27 10:32:56;;;;;;;8.77;7.47;;;;;;;;;;4886833;29;20500;-84
2021/09/27 10:35:28;;;;;;;10.80;8.13;;;;;;;;;;4882157;29;20517;-84
2021/09/27 10:38:00;;;;;;;9.80;8.03;;;;;;;;;;4868964;29;20482;-84
2021/09/27 10:40:28;;;;;;;11.40;7.50;;;;;;;;;;4872338;29;20489;-84
2021/09/27 10:42:59;;;;;;;11.60;7.20;;;;;;;;;;4888177;29;20484;-85
2021/09/27 10:45:31;;;;;;;9.90;7.37;;;22.90;99.80;;;;;;4874466;29;20478;-84
2021/09/27 10:48:00;;;;;;;9.10;6.40;;;23.00;99.80;;;;;;4876723;29;20494;-84
2021/09/27 10:50:34;;;;;;;8.47;7.33;;;23.10;99.80;;;;;;4903425;29;20480;-85
2021/09/27 10:53:14;;;;;;;6.80;6.10;;;23.30;99.80;;;;;;4906760;29;20477;-84
2021/09/27 10:55:54;;;;;;;8.13;6.63;;;23.50;99.80;;;;;;4880729;29;20880;-84
2021/09/27 10:58:37;;;;;;;6.80;5.60;;;23.90;99.80;;;;;;4886284;29;20971;-84
2021/09/27 11:01:08;;;;;;;9.83;6.60;;;24.30;99.80;;;;;;4864126;29;20478;-84
2021/09/27 11:03:43;;;;;;;9.30;5.97;;;24.50;99.80;;;;;;4892238;29;20569;-85
2021/09/27 11:06:27;;;;;;;6.13;5.50;;;24.50;99.80;;;;;;4878774;29;20481;-84
2021/09/27 11:09:01;;;;;;;9.90;6.00;;;24.50;99.80;;;;;;4885135;29;20483;-85
2021/09/27 11:11:40;;;;;;;7.13;5.97;;;24.70;99.80;;;;;;4881771;29;20496;-84
2021/09/27 11:14:41;;;;;;;6.37;5.40;;;24.50;99.80;;;;;;4877725;29;20492;-84
2021/09/27 11:17:22;;;;;;;11.47;6.13;;;24.40;99.80;;;;;;4886459;29;20507;-85
2021/09/27 11:20:23;;;;;;;11.70;6.17;;;24.20;99.80;;;;;;4903362;29;20510;-84
2021/09/27 11:23:21;;;;;;;7.37;6.13;;;23.90;99.80;;;;;;4885119;29;20504;-84
2021/09/27 11:26:04;;;;;;;8.97;6.17;;;23.80;99.80;;;;;;4891590;29;20475;-85
2021/09/27 11:28:46;;;;;;;7.37;5.63;;;23.50;99.80;;;;;;4873712;29;20555;-84
2021/09/27 11:31:33;;;;;;;8.77;6.60;;;23.10;99.80;;;;;;4876476;29;20471;-84
2021/09/27 11:34:31;;;;;;;8.47;5.90;;;22.70;99.80;;;;;;4891365;29;20505;-84
2021/09/27 11:37:20;;;;;;;7.43;6.13;;;22.40;99.80;;;;;;4894567;29;20502;-85
2021/09/27 11:39:51;;;;;;;9.70;6.83;;;22.20;99.80;;;;;;4882877;29;20859;-84
2021/09/27 11:42:33;;;;;;;11.63;8.47;;;22.10;99.80;;;;;;4892105;29;20486;-84
2021/09/27 11:45:38;;;;;;;9.40;7.00;;;22.20;99.80;;;;;;4872404;29;21052;-84
2021/09/27 11:48:11;;;;;;;11.40;7.47;;;22.50;99.80;;;;;;4875400;29;20472;-84
2021/09/27 11:51:19;;;;;;;9.57;6.73;;;23.10;99.80;;;;;;4906200;29;20480;-84
2021/09/27 11:54:10;;;;;;;10.60;7.40;;;25.80;98.70;;;;;;4905473;29;20496;-84
2021/09/27 11:56:46;;;;;;;9.50;7.00;;;27.00;93.70;;;;;;4874154;29;20569;-84
2021/09/27 11:59:22;;;;;;;8.13;6.83;;;27.00;92.90;;;;;;4861259;29;20500;-84
2021/09/27 12:01:57;;;;;;;11.40;7.37;;;27.90;90.90;;;;;;4864115;29;20479;-85
2021/09/27 12:04:39;;;;;;;9.10;7.27;;;29.60;85.60;;;;;;4909126;29;21052;-84
2021/09/27 12:07:13;;;;;;;8.27;7.43;;;28.80;85.80;;;;;;4899913;29;20481;-84
2021/09/27 12:09:48;;;;;;;9.40;7.13;;;27.00;92.30;;;;;;4878862;29;20490;-84
2021/09/27 12:12:26;;;;;;;9.80;7.37;;;26.10;95.40;;;;;;4881627;29;20479;-85
2021/09/27 12:14:56;;;;;;;6.53;5.73;;;25.80;94.70;;;;;;4889480;29;21287;-85
2021/09/27 12:17:35;;;;;;;7.53;6.67;;;25.00;96.80;;;;;;4891212;29;20551;-84
2021/09/27 12:20:07;;;;;;;9.70;6.93;;;24.10;99.10;;;;;;4887282;29;20848;-85
2021/09/27 12:22:43;;;;;;;8.53;6.13;;;23.70;99.80;;;;;;4869531;29;20458;-84
2021/09/27 12:25:16;;;;;;;8.97;6.63;;;24.10;99.80;;;;;;4876582;29;20470;-84
2021/09/27 12:28:00;;;;;;;8.10;6.50;;;24.20;99.80;;;;;;4885662;29;20488;-84
2021/09/27 12:30:32;;;;;;;7.57;6.80;;;23.80;99.80;;;;;;4858797;29;20502;-84
2021/09/27 12:33:04;;;;;;;8.63;7.10;;;23.40;99.80;;;;;;4883745;29;20484;-84
2021/09/27 12:35:42;;;;;;;8.37;6.83;;;23.10;99.80;;;;;;4901910;29;20481;-84
2021/09/27 12:38:12;;;;;;;9.33;6.90;;;22.80;99.80;;;;;;4905799;29;20580;-84
2021/09/27 12:40:46;;;;;;;6.40;5.70;;;22.60;99.80;;;;;;4889393;29;20465;-85
2021/09/27 12:43:16;;;;;;;7.07;6.37;;;22.60;99.80;;;;;;4895453;29;21063;-84
2021/09/27 12:45:46;;;;;;;7.33;6.00;;;22.60;99.80;;;;;;4888035;29;21023;-84
2021/09/27 12:48:22;;;;;;;10.73;6.73;;;22.70;99.80;;;;;;4860249;29;20481;-85
2021/09/27 12:50:55;;;;;;;8.80;7.10;;;22.70;99.80;;;;;;4880891;29;20573;-84
2021/09/27 12:53:35;;;;;;;11.50;6.30;;;22.70;99.80;;;;;;4895411;29;20481;-84
2021/09/27 12:56:05;;;;;;;7.47;5.73;;;22.60;99.80;;;;;;4894519;29;20481;-84
2021/09/27 12:58:39;;;;;;;7.07;6.00;;;22.60;99.80;;;;;;4883088;29;20938;-84
2021/09/27 13:01:10;;;;;;;15.57;5.53;;;22.60;99.80;;;;;;4867687;29;21067;-84
2021/09/27 13:03:43;;;;;;;6.00;5.40;;;22.90;99.80;;;;;;4907857;29;21154;-84
2021/09/27 13:06:15;;;;;;;8.53;6.10;;;23.10;99.80;;;;;;4911032;29;20501;-84
2021/09/27 13:08:48;;;;;;;11.67;6.30;;;23.10;99.80;;;;;;4909776;29;20481;-84
2021/09/27 13:11:31;;;;;;;8.30;5.47;;;23.10;99.80;;;;;;4888438;29;20557;-84
2021/09/27 13:14:05;;;;;;;5.57;5.10;;;23.10;99.80;;;;;;4892863;29;20588;-84
2021/09/27 13:16:38;;;;;;;8.53;5.80;;;23.10;99.80;;;;;;4898048;29;20545;-84
2021/09/27 13:19:10;;;;;;;6.47;5.87;;;23.10;99.80;;;;;;4885442;29;20522;-84
2021/09/27 13:21:46;;;;;;;7.33;5.60;;;22.90;99.80;;;;;;4896951;29;20540;-87
2021/09/27 13:24:21;;;;;;;7.17;5.83;;;22.70;99.80;;;;;;4894884;29;20564;-83
2021/09/27 13:26:54;;;;;;;7.77;5.90;;;22.50;99.80;;;;;;4905117;29;20547;-83
2021/09/27 13:29:35;;;;;;;10.30;5.53;;;22.40;99.80;;;;;;4896885;29;20473;-84
2021/09/27 13:32:07;;;;;;;10.90;6.20;;;22.30;99.80;;;;;;4890209;29;20461;-84
2021/09/27 13:34:46;;;;;;;8.40;6.03;;;22.20;99.80;;;;;;4910162;29;20469;-85
2021/09/27 13:37:27;;;;;;;6.30;5.23;;;22.10;99.80;;;;;;4909907;29;20548;-84
2021/09/27 13:40:03;;;;;;;5.73;5.17;;;22.00;99.80;;;;;;4912105;29;20477;-84
2021/09/27 13:42:41;;;;;;;7.70;5.60;;;22.00;99.80;;;;;;4889173;29;20488;-85
2021/09/27 13:45:14;;;;;;;6.23;5.27;;;22.00;99.80;;;;;;4904227;29;20477;-84
2021/09/27 13:47:43;;;;;;;8.83;4.63;;;22.10;99.80;;;;;;4900069;29;20472;-84
2021/09/27 13:50:11;;;;;;;7.80;4.93;;;22.00;99.80;;;;;;4911212;29;20481;-84
2021/09/27 13:52:44;;;;;;;7.43;4.80;;;22.10;99.80;;;;;;4907100;29;20560;-84
2021/09/27 13:55:14;;;;;;;7.00;6.13;;;22.10;99.80;;;;;;4895423;29;20474;-85
2021/09/27 13:57:42;;;;;;;6.00;5.40;;;22.30;99.80;;;;;;4903710;29;20572;-84
2021/09/27 14:00:11;;;;;;;9.33;6.17;;;22.40;99.80;;;;;;4878889;29;20491;-84
2021/09/27 14:02:39;;;;;;;10.87;6.07;;;22.60;99.80;;;;;;4893919;29;20896;-84
2021/09/27 14:05:09;;;;;;;6.90;5.90;;;22.80;99.80;;;;;;4912025;29;20485;-85
2021/09/27 14:07:37;;;;;;;6.30;5.70;;;22.90;99.80;;;;;;4913420;29;20465;-84
2021/09/27 14:10:07;;;;;;;6.73;6.00;;;22.90;99.80;;;;;;4910411;29;20470;-84
2021/09/27 14:12:36;;;;;;;7.17;5.60;;;23.00;99.80;;;;;;4910475;29;20883;-85
2021/09/27 14:15:05;;;;;;;5.60;4.90;;;22.90;99.80;;;;;;4903343;29;20465;-84
2021/09/27 14:17:35;;;;;;;6.40;5.20;;;22.70;99.80;;;;;;4884024;29;21284;-85
2021/09/27 14:20:06;;;;;;;6.47;5.73;;;22.50;99.80;;;;;;4905244;29;20489;-84
2021/09/27 14:22:34;;;;;;;5.53;5.03;;;22.30;99.80;;;;;;4913198;29;20475;-84
2021/09/27 14:25:02;;;;;;;6.93;5.30;;;22.10;99.80;;;;;;4908768;29;20473;-84
2021/09/27 14:27:30;;;;;;;5.70;5.00;;;21.90;99.80;;;;;;4898350;29;20577;-84